Bluetown, Texas
Current Conditions -  °F | °C
As of 10:15 PM on Sunday 23 Nov 2014 (Local Time) from KT65 Reporting Station
Clear Clear  
Wind Chill: 63°   Ceiling: Unl
Heat Index: 63°   Visibility: 7mi
Dew Point: 58°   Wind: 0mph
Humidity: 84%   Direction: NA
Pressure: 29.73"   Gusts: NA
Location:  26.0737°N, 97.8225°W
Report Text: KT65 240415Z AUTO 00000KT 7SM CLR 17/15 A2973 RMK AO2 T01730145
Loading
Personal Weather Stations






























Interactive Weather Map New forecast layout! Learn more

10-Day Weather Forecast

Advertisements
Track Severe Weather on mobile